Time;durP1;ratioP1;P1;durP2;ratioP2;P2;SDS_P1;SDS_P2;PMS_P1;PMS_P2;Temp;Humidity;BMP_temperature;BMP_pressure;BME280_temperature;BME280_humidity;BME280_pressure;Samples;Min_cycle;Max_cycle;Signal;HPM_P1;HPM_P2
2023/08/11 00:01:13;;;;;;;1999.90;999.90;;;;;;;15.19;100.00;95390.66;5006611;28;20195;-60
2023/08/11 00:03:38;;;;;;;1999.90;999.90;;;;;;;15.16;100.00;95380.50;5006792;28;20200;-61
2023/08/11 00:06:07;;;;;;;1999.90;999.90;;;;;;;15.08;100.00;95367.41;5006578;28;20266;-61
2023/08/11 00:08:32;;;;;;;1999.90;999.90;;;;;;;15.05;100.00;95347.00;5006223;28;20250;-60
2023/08/11 00:10:58;;;;;;;1999.90;999.90;;;;;;;15.02;100.00;95327.84;5006659;28;20262;-60
2023/08/11 00:13:23;;;;;;;1999.90;999.90;;;;;;;14.98;100.00;95300.47;5006802;28;20389;-61
2023/08/11 00:15:49;;;;;;;1999.90;999.90;;;;;;;14.93;100.00;95278.97;5006294;28;20246;-61
2023/08/11 00:18:15;;;;;;;1999.90;999.90;;;;;;;14.88;100.00;95257.50;5006256;28;20499;-61
2023/08/11 00:20:41;;;;;;;1999.90;999.90;;;;;;;14.83;100.00;95238.78;5006453;28;20493;-61
2023/08/11 00:23:06;;;;;;;1999.90;999.90;;;;;;;14.83;100.00;95194.03;5006283;28;20291;-61
2023/08/11 00:25:32;;;;;;;1999.90;999.90;;;;;;;14.82;100.00;95168.50;5006130;28;20270;-61
2023/08/11 00:27:58;;;;;;;1999.90;999.90;;;;;;;14.79;100.00;95141.13;5006627;28;20511;-61
2023/08/11 00:30:24;;;;;;;1999.90;999.90;;;;;;;14.77;100.00;95133.31;5006004;28;20204;-61
2023/08/11 00:32:49;;;;;;;1999.90;999.90;;;;;;;14.71;100.00;95118.56;5005922;28;20254;-60
2023/08/11 00:35:15;;;;;;;1999.90;999.90;;;;;;;14.70;100.00;95094.25;5005995;28;20211;-61
2023/08/11 00:37:40;;;;;;;1999.90;999.90;;;;;;;14.65;100.00;95076.34;5006475;28;20196;-61
2023/08/11 00:40:08;;;;;;;1999.90;999.90;;;;;;;14.65;100.00;95056.31;5006135;28;20371;-60
2023/08/11 00:42:33;;;;;;;1999.90;999.90;;;;;;;14.63;100.00;95028.47;5005857;28;20192;-60
2023/08/11 00:44:59;;;;;;;1999.90;999.90;;;;;;;14.57;100.00;95005.50;5005876;28;20262;-60
2023/08/11 00:47:26;;;;;;;1999.90;999.90;;;;;;;14.53;100.00;94985.63;5005712;28;20199;-61
2023/08/11 00:49:51;;;;;;;1999.90;999.90;;;;;;;14.51;100.00;94953.06;5006261;28;20208;-60
2023/08/11 00:52:18;;;;;;;1999.90;999.90;;;;;;;14.49;100.00;94930.00;5006096;28;20219;-60
2023/08/11 00:54:43;;;;;;;1999.90;999.90;;;;;;;14.47;100.00;94922.19;5005970;28;20203;-61
2023/08/11 00:57:09;;;;;;;1999.90;999.90;;;;;;;14.43;100.00;94905.06;5005579;28;20227;-61
2023/08/11 00:59:35;;;;;;;1999.90;999.90;;;;;;;14.38;100.00;94900.09;5005852;28;20230;-61
2023/08/11 01:02:00;;;;;;;1999.90;999.90;;;;;;;14.37;100.00;94901.31;5005625;28;20227;-62
2023/08/11 01:04:26;;;;;;;1999.90;999.90;;;;;;;14.35;100.00;94881.72;5005383;28;20210;-61
2023/08/11 01:07:04;;;;;;;1999.90;999.90;;;;;;;14.32;100.00;94871.66;5005442;28;20202;-61
2023/08/11 01:09:43;;;;;;;1999.90;999.90;;;;;;;14.34;100.00;94869.22;5005607;28;20218;-61
2023/08/11 01:12:21;;;;;;;1999.90;999.90;;;;;;;14.34;100.00;94866.47;5005205;28;20212;-62
2023/08/11 01:15:10;;;;;;;1999.90;999.90;;;;;;;14.32;100.00;94868.91;5005490;28;20266;-61
2023/08/11 01:17:38;;;;;;;1999.90;999.90;;;;;;;14.29;100.00;94872.53;5005660;28;20270;-61
2023/08/11 01:20:10;;;;;;;1999.90;999.90;;;;;;;14.24;100.00;94872.31;5005270;28;20206;-61
2023/08/11 01:22:36;;;;;;;1999.90;999.90;;;;;;;14.27;100.00;94869.44;5005315;28;20242;-60
2023/08/11 01:25:02;;;;;;;1999.90;999.90;;;;;;;14.23;100.00;94863.28;5004986;28;20203;-62
2023/08/11 01:27:28;;;;;;;1999.90;999.90;;;;;;;14.23;100.00;94863.28;5005378;28;20203;-61
2023/08/11 01:29:54;;;;;;;1999.90;999.90;;;;;;;14.21;100.00;94860.19;5005126;28;20210;-61
2023/08/11 01:32:19;;;;;;;1999.90;999.90;;;;;;;14.19;100.00;94845.34;5005040;28;20219;-61
2023/08/11 01:34:44;;;;;;;1999.90;999.90;;;;;;;14.19;100.00;94851.59;5005338;28;20183;-61
2023/08/11 01:37:10;;;;;;;1999.90;999.90;;;;;;;14.19;100.00;94840.63;5005110;28;20199;-62
2023/08/11 01:39:35;;;;;;;1999.90;999.90;;;;;;;14.16;100.00;94830.50;5005317;28;20278;-61
2023/08/11 01:42:01;;;;;;;1999.90;999.90;;;;;;;14.11;100.00;94828.31;5004776;28;20196;-62
2023/08/11 01:44:27;;;;;;;1999.90;999.90;;;;;;;14.12;100.00;94818.88;5004934;28;20212;-61
2023/08/11 01:46:55;;;;;;;1999.90;999.90;;;;;;;14.08;100.00;94818.22;5004665;28;20303;-61
2023/08/11 01:49:26;;;;;;;1999.90;999.90;;;;;;;14.07;100.00;94813.94;5004443;28;20223;-62
2023/08/11 01:51:53;;;;;;;1999.90;999.90;;;;;;;14.06;100.00;94812.38;5004836;28;20222;-61
2023/08/11 01:54:18;;;;;;;1999.90;999.90;;;;;;;14.05;100.00;94808.09;5004481;28;20554;-61
2023/08/11 01:56:44;;;;;;;1999.90;999.90;;;;;;;14.05;100.00;94808.09;5004557;28;20207;-61
2023/08/11 01:59:17;;;;;;;1999.90;999.90;;;;;;;14.03;100.00;94802.28;5004457;28;20196;-61
2023/08/11 02:01:43;;;;;;;1999.90;999.90;;;;;;;14.02;100.00;94791.75;5004408;28;20199;-61
2023/08/11 02:04:09;;;;;;;1999.90;999.90;;;;;;;13.99;100.00;94787.88;5004858;28;20519;-64
2023/08/11 02:06:37;;;;;;;1999.90;999.90;;;;;;;13.96;100.00;94788.78;5004644;28;20195;-61
2023/08/11 02:09:07;;;;;;;1999.90;999.90;;;;;;;13.93;100.00;94795.16;5004173;28;20196;-61
2023/08/11 02:11:32;;;;;;;1999.90;999.90;;;;;;;13.92;100.00;94793.63;5004418;28;20196;-61
2023/08/11 02:13:58;;;;;;;1999.90;999.90;;;;;;;13.88;100.00;94787.44;5004575;28;20527;-61
2023/08/11 02:16:23;;;;;;;1999.90;999.90;;;;;;;13.84;100.00;94781.28;5004184;28;20563;-61
2023/08/11 02:18:49;;;;;;;1999.90;999.90;;;;;;;13.78;100.00;94772.09;5004575;28;20198;-60
2023/08/11 02:21:14;;;;;;;1999.90;999.90;;;;;;;13.77;100.00;94770.53;5005150;28;20187;-60
2023/08/11 02:23:39;;;;;;;1999.90;999.90;;;;;;;13.79;100.00;94762.66;5010596;28;20222;-60
2023/08/11 02:26:05;;;;;;;1999.90;999.90;;;;;;;13.78;100.00;94761.13;5011233;28;20191;-60
2023/08/11 02:28:31;;;;;;;1999.90;999.90;;;;;;;13.74;100.00;94765.94;5010930;28;20191;-60
2023/08/11 02:30:57;;;;;;;1999.90;999.90;;;;;;;13.73;100.00;94769.88;5010675;28;20206;-60
2023/08/11 02:33:22;;;;;;;1999.90;999.90;;;;;;;13.71;100.00;94766.81;5011155;28;20299;-61
2023/08/11 02:35:48;;;;;;;1999.90;999.90;;;;;;;13.66;100.00;94767.34;5011091;28;20385;-60
2023/08/11 02:38:16;;;;;;;1999.90;999.90;;;;;;;13.67;100.00;94759.88;5011029;28;20210;-61
2023/08/11 02:40:42;;;;;;;1999.90;999.90;;;;;;;13.66;100.00;94756.38;5010697;28;20207;-62
2023/08/11 02:43:07;;;;;;;1999.90;999.90;;;;;;;13.65;100.00;94763.06;5010575;28;20211;-60
2023/08/11 02:45:33;;;;;;;1999.90;999.90;;;;;;;13.58;100.00;94768.78;5010610;28;20358;-61
2023/08/11 02:47:58;;;;;;;1999.90;999.90;;;;;;;13.53;100.00;94769.31;5010577;28;20196;-61
2023/08/11 02:50:23;;;;;;;1999.90;999.90;;;;;;;13.52;100.00;94769.75;5010763;28;20495;-61
2023/08/11 02:52:48;;;;;;;1999.90;999.90;;;;;;;13.52;100.00;94769.75;5010465;28;20222;-61
2023/08/11 02:55:14;;;;;;;1999.90;999.90;;;;;;;13.51;100.00;94763.50;5010402;28;20199;-61
2023/08/11 02:57:40;;;;;;;1999.90;999.90;;;;;;;13.50;100.00;94756.47;5010676;28;20203;-61
2023/08/11 03:00:13;;;;;;;1999.90;999.90;;;;;;;13.49;100.00;94754.16;5010403;28;20199;-62
2023/08/11 03:02:42;;;;;;;1999.90;999.90;;;;;;;13.46;100.00;94747.59;5010236;28;20168;-61
2023/08/11 03:05:09;;;;;;;1999.90;999.90;;;;;;;13.43;100.00;94748.44;5010792;28;20195;-61
2023/08/11 03:07:35;;;;;;;1999.90;999.90;;;;;;;13.37;100.00;94755.69;5010073;28;20518;-60
2023/08/11 03:10:01;;;;;;;1999.90;999.90;;;;;;;13.34;100.00;94746.34;5010323;28;20227;-61
2023/08/11 03:12:28;;;;;;;1999.90;999.90;;;;;;;13.33;100.00;94742.06;5010138;28;20219;-61
2023/08/11 03:14:54;;;;;;;1999.90;999.90;;;;;;;13.28;100.00;94739.09;5010404;28;20192;-61
2023/08/11 03:17:19;;;;;;;1999.90;999.90;;;;;;;13.25;100.00;94739.97;5010294;28;20358;-61
2023/08/11 03:19:44;;;;;;;1999.90;999.90;;;;;;;13.24;100.00;94733.75;5010574;28;20374;-61
2023/08/11 03:22:10;;;;;;;1999.90;999.90;;;;;;;13.19;100.00;94728.03;5010241;28;20199;-61
2023/08/11 03:24:35;;;;;;;1999.90;999.90;;;;;;;13.13;100.00;94724.28;5010542;28;20191;-60
2023/08/11 03:27:00;;;;;;;1999.90;999.90;;;;;;;13.15;100.00;94724.63;5010237;28;20195;-60
2023/08/11 03:29:26;;;;;;;1999.90;999.90;;;;;;;13.12;100.00;94709.03;5010093;28;20195;-62
2023/08/11 03:31:51;;;;;;;1999.90;999.90;;;;;;;13.10;100.00;94711.44;5010634;28;20214;-61
2023/08/11 03:34:16;;;;;;;1999.90;999.90;;;;;;;13.10;100.00;94706.72;5007060;28;20228;-61
2023/08/11 03:36:43;;;;;;;1999.90;999.90;;;;;;;13.08;100.00;94703.63;5007464;28;20195;-61
2023/08/11 03:39:08;;;;;;;1999.90;999.90;;;;;;;13.07;100.00;94702.13;5007752;28;20210;-61
2023/08/11 03:41:34;;;;;;;1999.90;999.90;;;;;;;13.05;100.00;94703.75;5007004;28;20195;-61
2023/08/11 03:43:59;;;;;;;1999.90;999.90;;;;;;;13.00;100.00;94707.00;5007093;28;20203;-61
2023/08/11 03:46:25;;;;;;;1999.90;999.90;;;;;;;13.02;100.00;94705.41;5007363;28;20216;-62
2023/08/11 03:48:50;;;;;;;1999.90;999.90;;;;;;;13.03;100.00;94700.66;5006861;28;20312;-61
2023/08/11 03:51:15;;;;;;;1999.90;999.90;;;;;;;13.05;100.00;94709.25;5006716;28;20424;-61
2023/08/11 03:53:42;;;;;;;1999.90;999.90;;;;;;;13.02;100.00;94710.09;5006810;28;20215;-61
2023/08/11 03:56:07;;;;;;;1999.90;999.90;;;;;;;13.02;100.00;94713.63;5006860;28;20203;-61
2023/08/11 03:58:35;;;;;;;1999.90;999.90;;;;;;;13.01;100.00;94723.03;5006860;28;20270;-61
2023/08/11 04:01:01;;;;;;;1999.90;999.90;;;;;;;13.03;100.00;94722.59;5006412;28;20278;-61
2023/08/11 04:03:30;;;;;;;1999.90;999.90;;;;;;;13.05;100.00;94715.47;5007060;28;20207;-61
2023/08/11 04:05:55;;;;;;;1999.90;999.90;;;;;;;13.05;100.00;94715.47;5006992;28;20207;-61
2023/08/11 04:08:21;;;;;;;1999.90;999.90;;;;;;;13.03;100.00;94722.59;5006992;28;20199;-61
2023/08/11 04:10:46;;;;;;;1999.90;999.90;;;;;;;13.06;100.00;94722.50;5006941;28;20191;-60
2023/08/11 04:13:11;;;;;;;1999.90;999.90;;;;;;;13.10;100.00;94722.41;5006484;28;20208;-62
2023/08/11 04:15:38;;;;;;;1999.90;999.90;;;;;;;13.07;100.00;94729.53;5006388;28;20406;-60
2023/08/11 04:18:04;;;;;;;1999.90;999.90;;;;;;;13.19;100.00;94722.53;5006578;28;20223;-60
2023/08/11 04:20:30;;;;;;;1999.90;999.90;;;;;;;13.24;100.00;94727.47;5006475;28;20196;-60
2023/08/11 04:22:56;;;;;;;1999.90;999.90;;;;;;;13.40;100.00;94719.16;5006210;28;20241;-60
2023/08/11 04:25:21;;;;;;;1999.90;999.90;;;;;;;13.52;100.00;94732.13;5006213;28;20196;-61
2023/08/11 04:27:47;;;;;;;1999.90;999.90;;;;;;;13.68;100.00;94731.25;5006170;28;20202;-60
2023/08/11 04:30:13;;;;;;;1999.90;999.90;;;;;;;13.73;100.00;94760.88;5005960;28;20200;-62
2023/08/11 04:32:38;;;;;;;1999.90;999.90;;;;;;;13.73;100.00;94775.38;5006393;28;20211;-61
2023/08/11 04:35:06;;;;;;;1999.90;999.90;;;;;;;13.89;100.00;94789.00;5006444;28;20403;-61
2023/08/11 04:37:33;;;;;;;1999.90;999.90;;;;;;;13.98;100.00;94813.06;5005814;28;20199;-60
2023/08/11 04:39:58;;;;;;;1999.90;999.90;;;;;;;14.08;100.00;94834.69;5006168;28;20210;-60
2023/08/11 04:42:23;;;;;;;1999.90;999.90;;;;;;;14.28;100.00;94870.22;5006196;28;20262;-61
2023/08/11 04:44:49;;;;;;;1999.90;999.90;;;;;;;14.49;100.00;94908.78;5005542;28;20271;-61
2023/08/11 04:47:14;;;;;;;1999.90;999.90;;;;;;;14.80;100.00;94950.22;5005863;28;20356;-61
2023/08/11 04:49:40;;;;;;;1999.90;999.90;;;;;;;14.99;100.00;95018.72;5005830;28;20546;-61
2023/08/11 04:52:07;;;;;;;1999.90;999.90;;;;;;;15.21;100.00;95096.63;5005791;28;20203;-61
2023/08/11 04:54:32;;;;;;;1999.90;999.90;;;;;;;15.52;100.00;95188.47;5006086;28;20195;-61
2023/08/11 04:56:58;;;;;;;1999.90;999.90;;;;;;;15.90;100.00;95285.63;5005807;28;20187;-60
2023/08/11 04:59:23;;;;;;;1999.90;999.90;;;;;;;16.32;100.00;95397.31;5005730;28;20191;-61
2023/08/11 05:01:48;;;;;;;1999.90;999.90;;;;;;;16.81;100.00;95510.09;5005534;28;20175;-61
2023/08/11 05:04:14;;;;;;;1999.90;999.90;;;;;;;17.24;100.00;95623.50;5006121;28;20203;-61
2023/08/11 05:06:39;;;;;;;1999.90;999.90;;;;;;;17.69;100.00;95698.66;5005762;28;20188;-61
2023/08/11 05:09:05;;;;;;;1999.90;999.90;;;;;;;17.94;100.00;95749.22;5005621;28;20195;-60
2023/08/11 05:11:30;;;;;;;1999.90;999.90;;;;;;;18.45;100.00;95783.94;5005170;28;20207;-60
2023/08/11 05:13:56;;;;;;;1999.90;999.90;;;;;;;18.68;100.00;95818.75;5005317;28;20220;-60
2023/08/11 05:16:22;;;;;;;1999.90;999.90;;;;;;;18.89;100.00;95834.69;5005296;28;20206;-61
2023/08/11 05:18:47;;;;;;;1999.90;999.90;;;;;;;19.31;100.00;95855.44;5005527;28;20206;-60
2023/08/11 05:21:15;;;;;;;1999.90;999.90;;;;;;;19.60;100.00;95863.50;5005136;28;20192;-59
2023/08/11 05:23:41;;;;;;;1999.90;999.90;;;;;;;20.16;100.00;95876.13;5004972;28;20191;-60
2023/08/11 05:26:07;;;;;;;1999.90;999.90;;;;;;;20.43;100.00;95890.13;5005311;28;20179;-60
2023/08/11 05:28:32;;;;;;;1999.90;999.90;;;;;;;20.88;100.00;95898.66;5005127;28;20263;-60
2023/08/11 05:30:57;;;;;;;1999.90;999.90;;;;;;;20.94;100.00;95907.97;5004761;28;20378;-64
2023/08/11 05:33:24;;;;;;;1999.90;999.90;;;;;;;21.31;100.00;95908.84;5005656;28;20267;-61
2023/08/11 05:35:50;;;;;;;1999.90;999.90;;;;;;;21.57;100.00;95908.09;5005400;28;20227;-61
2023/08/11 05:38:16;;;;;;;1999.90;999.90;;;;;;;21.97;100.00;95917.09;5005218;28;20202;-60
2023/08/11 05:40:42;;;;;;;1999.90;999.90;;;;;;;22.09;100.00;95921.75;5004780;28;20210;-61
2023/08/11 05:43:08;;;;;;;1999.90;999.90;;;;;;;22.11;100.00;95922.03;5004885;28;20235;-61
2023/08/11 05:45:33;;;;;;;1999.90;999.90;;;;;;;22.46;100.00;95926.03;5004831;28;20234;-61
2023/08/11 05:47:59;;;;;;;1999.90;999.90;;;;;;;22.56;100.00;95929.59;5004825;28;20311;-61
2023/08/11 05:50:24;;;;;;;1999.90;999.90;;;;;;;22.93;100.00;95925.44;5004717;28;20199;-61
2023/08/11 05:52:49;;;;;;;1999.90;999.90;;;;;;;22.91;100.00;95932.72;5004712;28;20207;-61
2023/08/11 05:55:15;;;;;;;1999.90;999.90;;;;;;;23.48;100.00;95923.94;5004793;28;20223;-63
2023/08/11 05:57:40;;;;;;;1999.90;999.90;;;;;;;23.54;100.00;95929.63;5004539;28;20195;-61
2023/08/11 06:00:08;;;;;;;1999.90;999.90;;;;;;;24.09;100.00;95925.22;5004748;28;20278;-62
2023/08/11 06:02:34;;;;;;;1999.90;999.90;;;;;;;24.88;100.00;95930.50;5004860;28;20203;-61
2023/08/11 06:04:59;;;;;;;1999.90;999.90;;;;;;;24.92;100.00;95939.44;5004897;28;20262;-60
2023/08/11 06:07:24;;;;;;;1999.90;999.90;;;;;;;24.91;100.00;95940.72;5004762;28;20199;-63
2023/08/11 06:09:50;;;;;;;1999.90;999.90;;;;;;;24.97;100.00;95943.59;5004818;28;20199;-64
2023/08/11 06:12:15;;;;;;;1999.90;999.90;;;;;;;25.43;100.00;95941.81;5004142;28;20207;-68
2023/08/11 06:14:41;;;;;;;1999.90;999.90;;;;;;;25.76;100.00;95936.66;5004432;28;20203;-64
2023/08/11 06:17:06;;;;;;;1999.90;999.90;;;;;;;25.65;100.00;95936.53;5004552;28;20215;-63
2023/08/11 06:19:32;;;;;;;1999.90;999.90;;;;;;;26.13;100.00;95943.28;5004249;28;20207;-64
2023/08/11 06:21:59;;;;;;;1999.90;999.90;;;;;;;26.27;100.00;95942.41;5004272;28;20200;-63
2023/08/11 06:24:24;;;;;;;1999.90;999.90;;;;;;;26.61;100.00;95941.53;5004640;28;20207;-63
2023/08/11 06:26:51;;;;;;;1999.90;999.90;;;;;;;26.72;100.00;95938.03;5004240;28;20271;-64
2023/08/11 06:29:16;;;;;;;1999.90;999.90;;;;;;;26.87;100.00;95936.66;5004504;28;20192;-62
2023/08/11 06:31:42;;;;;;;1999.90;999.90;;;;;;;27.05;100.00;95944.72;5003696;28;20248;-64
2023/08/11 06:34:08;;;;;;;1999.90;999.90;;;;;;;27.12;100.00;95935.84;5004248;28;20243;-64
2023/08/11 06:36:33;;;;;;;1999.90;999.90;;;;;;;27.81;100.00;95942.97;5003899;28;20238;-64
2023/08/11 06:38:59;;;;;;;1999.90;999.90;;;;;;;28.10;100.00;95934.97;5004682;28;20271;-64
2023/08/11 06:41:24;;;;;;;1999.90;999.90;;;;;;;28.26;100.00;95941.94;5004458;28;20219;-64
2023/08/11 06:43:49;;;;;;;1999.90;999.90;;;;;;;28.21;100.00;95932.19;5003781;28;20331;-64
2023/08/11 06:46:15;;;;;;;1999.90;999.90;;;;;;;28.62;100.00;95938.19;5003800;28;20257;-64
2023/08/11 06:48:41;;;;;;;1999.90;999.90;;;;;;;29.33;100.00;95937.50;5004005;28;20191;-63
2023/08/11 06:51:06;;;;;;;1999.90;999.90;;;;;;;29.49;100.00;95938.78;5003962;28;20195;-63
2023/08/11 06:53:31;;;;;;;1999.90;999.90;;;;;;;29.90;100.00;95948.19;5003919;28;20200;-63
2023/08/11 06:55:57;;;;;;;1999.90;999.90;;;;;;;29.64;100.00;95942.09;5004074;28;20192;-63
2023/08/11 06:58:22;;;;;;;1999.90;999.90;;;;;;;30.12;100.00;95948.84;5004179;28;20184;-63
2023/08/11 07:00:47;;;;;;;1999.90;999.90;;;;;;;30.43;100.00;95956.97;5003877;28;20263;-63
2023/08/11 07:03:13;;;;;;;1999.90;999.90;;;;;;;30.72;100.00;95956.31;5004062;28;20215;-63
2023/08/11 07:05:38;;;;;;;1999.90;999.90;;;;;;;31.53;100.00;95958.28;5003852;28;20179;-63
2023/08/11 07:08:04;;;;;;;1999.90;999.90;;;;;;;32.37;93.47;95959.72;5005256;28;20192;-63
2023/08/11 07:10:29;;;;;;;1999.90;999.90;;;;;;;31.92;94.99;95963.56;5007500;28;20214;-63
2023/08/11 07:12:54;;;;;;;1999.90;999.90;;;;;;;32.14;95.01;95966.13;5007519;28;20219;-63
2023/08/11 07:15:20;;;;;;;1999.90;999.90;;;;;;;32.61;95.67;95954.00;5007874;28;20203;-63
2023/08/11 07:17:47;;;;;;;1999.90;999.90;;;;;;;33.30;83.55;95962.53;5007577;28;20222;-63
2023/08/11 07:20:13;;;;;;;1999.90;999.90;;;;;;;32.87;84.48;95968.34;5007148;28;20196;-63
2023/08/11 07:22:38;;;;;;;1999.90;999.90;;;;;;;33.12;82.82;95964.09;5007294;28;20207;-63
2023/08/11 07:25:04;;;;;;;1999.90;999.90;;;;;;;32.60;81.14;95972.28;5007337;28;20200;-61
2023/08/11 07:27:29;;;;;;;1999.90;999.90;;;;;;;33.53;79.38;95972.19;5007331;28;20227;-61
2023/08/11 07:29:54;;;;;;;1999.90;999.90;;;;;;;34.09;78.42;95963.50;5007182;28;20206;-61
2023/08/11 07:32:20;;;;;;;1999.90;999.90;;;;;;;33.84;77.58;95965.75;5007144;28;20208;-60
2023/08/11 07:34:45;;;;;;;1999.90;999.90;;;;;;;33.24;79.33;95973.16;5007315;28;20196;-61
2023/08/11 07:37:10;;;;;;;1999.90;999.90;;;;;;;33.73;76.67;95963.84;5007388;28;20176;-60
2023/08/11 07:39:36;;;;;;;1999.90;999.90;;;;;;;33.82;74.25;95971.16;5007454;28;20376;-60
2023/08/11 07:42:04;;;;;;;1999.90;999.90;;;;;;;34.26;72.17;95966.78;5007060;28;20202;-61
2023/08/11 07:44:30;;;;;;;1999.90;999.90;;;;;;;34.89;68.92;95964.44;5006964;28;20238;-60
2023/08/11 07:46:56;;;;;;;1999.90;999.90;;;;;;;34.79;65.60;95966.16;5007350;28;20195;-60
2023/08/11 07:49:22;;;;;;;1999.90;999.90;;;;;;;35.06;65.37;95969.72;5007293;28;20204;-61
2023/08/11 07:51:49;;;;;;;1999.90;999.90;;;;;;;34.80;61.72;95962.00;5007486;28;20307;-61
2023/08/11 07:54:16;;;;;;;1999.90;999.90;;;;;;;34.67;64.11;95964.13;5006748;28;20200;-60
2023/08/11 07:56:43;;;;;;;1999.90;999.90;;;;;;;33.60;65.82;95960.22;5006641;28;20199;-60
2023/08/11 07:59:08;;;;;;;1999.90;999.90;;;;;;;34.61;63.10;95949.28;5006773;28;20211;-60
2023/08/11 08:01:34;;;;;;;1999.90;999.90;;;;;;;34.15;57.75;95964.16;5006780;28;20255;-61
2023/08/11 08:03:59;;;;;;;1999.90;999.90;;;;;;;33.81;65.24;95956.25;5007007;28;20192;-60
2023/08/11 08:06:24;;;;;;;1999.90;999.90;;;;;;;33.52;63.42;95971.47;5006713;28;20179;-61
2023/08/11 08:08:50;;;;;;;1999.90;999.90;;;;;;;33.45;67.70;95960.75;5006793;28;20223;-61
2023/08/11 08:11:15;;;;;;;1999.90;999.90;;;;;;;32.98;62.40;95965.34;5006880;28;20238;-60
2023/08/11 08:13:41;;;;;;;1999.90;999.90;;;;;;;31.94;71.03;95964.56;5006675;28;20273;-60
2023/08/11 08:16:06;;;;;;;1999.90;999.90;;;;;;;32.77;69.57;95969.25;5006813;28;20230;-59
2023/08/11 08:18:32;;;;;;;1999.90;999.90;;;;;;;32.43;69.79;95971.75;5006423;28;20226;-60
2023/08/11 08:20:57;;;;;;;1999.90;999.90;;;;;;;33.96;64.75;95966.31;5005974;28;20195;-60
2023/08/11 08:23:23;;;;;;;1999.90;999.90;;;;;;;34.18;64.93;95958.13;5006114;28;20262;-60
2023/08/11 08:25:48;;;;;;;1999.90;999.90;;;;;;;34.44;63.43;95968.75;5006648;28;20194;-60
2023/08/11 08:28:13;;;;;;;1999.90;999.90;;;;;;;34.37;61.08;95958.06;5006411;28;20238;-60
2023/08/11 08:30:39;;;;;;;1999.90;999.90;;;;;;;34.23;59.87;95962.94;5006590;28;20207;-61
2023/08/11 08:33:06;;;;;;;1999.90;999.90;;;;;;;34.84;59.86;95961.72;5006538;28;20235;-60
2023/08/11 08:35:31;;;;;;;1999.90;999.90;;;;;;;35.37;55.97;95963.06;5006076;28;20214;-61
2023/08/11 08:37:56;;;;;;;1999.90;999.90;;;;;;;35.48;57.75;95957.09;5006419;28;20172;-61
2023/08/11 08:40:22;;;;;;;1999.90;999.90;;;;;;;36.12;52.35;95963.72;5006442;28;20196;-61
2023/08/11 08:42:49;;;;;;;1999.90;999.90;;;;;;;34.74;53.39;95967.03;5006260;28;20295;-60
2023/08/11 08:45:15;;;;;;;1999.90;999.90;;;;;;;35.00;53.80;95963.41;5005574;28;20200;-59
2023/08/11 08:47:41;;;;;;;1999.90;999.90;;;;;;;35.55;54.11;95962.09;5005624;28;20200;-60
2023/08/11 08:50:08;;;;;;;1999.90;999.90;;;;;;;34.32;55.56;95965.34;5005592;28;20200;-59
2023/08/11 08:52:34;;;;;;;1999.90;999.90;;;;;;;33.47;60.62;95963.03;5005725;28;20204;-59
2023/08/11 08:55:01;;;;;;;1999.90;999.90;;;;;;;33.30;58.13;95960.47;5005692;28;20207;-59
2023/08/11 08:57:27;;;;;;;1999.90;999.90;;;;;;;32.79;62.43;95961.72;5005511;28;20262;-59
2023/08/11 08:59:52;;;;;;;1999.90;999.90;;;;;;;33.35;60.12;95956.78;5005546;28;20203;-59
2023/08/11 09:02:20;;;;;;;1999.90;999.90;;;;;;;34.03;58.28;95957.16;5005721;28;20219;-61
2023/08/11 09:04:47;;;;;;;1999.90;999.90;;;;;;;34.97;57.16;95961.66;5005308;28;20207;-60
2023/08/11 09:07:13;;;;;;;1999.90;999.90;;;;;;;35.21;56.41;95958.53;5005965;28;20210;-60
2023/08/11 09:09:38;;;;;;;1999.90;999.90;;;;;;;35.53;55.05;95956.19;5005554;28;20195;-60
2023/08/11 09:12:04;;;;;;;1999.90;999.90;;;;;;;34.84;57.65;95961.72;5005749;28;20207;-59
2023/08/11 09:14:29;;;;;;;1999.90;999.90;;;;;;;35.34;55.95;95959.25;5005619;28;20200;-60
2023/08/11 09:16:58;;;;;;;1999.90;999.90;;;;;;;35.01;56.27;95960.00;5005218;28;20306;-59
2023/08/11 09:19:23;;;;;;;1999.90;999.90;;;;;;;35.51;55.89;95956.00;5005335;28;20200;-60
2023/08/11 09:21:49;;;;;;;1999.90;999.90;;;;;;;35.35;56.10;95949.41;5005142;28;20222;-61
2023/08/11 09:24:15;;;;;;;1999.90;999.90;;;;;;;35.78;55.42;95949.63;5005088;28;20196;-59
2023/08/11 09:26:45;;;;;;;1999.90;999.90;;;;;;;36.05;54.38;95947.34;5005086;28;20188;-59
2023/08/11 09:29:12;;;;;;;1999.90;999.90;;;;;;;35.96;54.32;95951.47;5005070;28;20188;-59
2023/08/11 09:31:39;;;;;;;1999.90;999.90;;;;;;;35.65;55.05;95954.59;5004145;28;20192;-59
2023/08/11 09:34:14;;;;;;;1999.90;999.90;;;;;;;34.23;61.04;95945.16;5004816;28;20230;-60
2023/08/11 09:36:40;;;;;;;1999.90;999.90;;;;;;;35.56;55.18;95949.38;5005184;28;20195;-59
2023/08/11 09:39:07;;;;;;;1999.90;999.90;;;;;;;33.52;60.42;95954.44;5005340;28;20196;-59
2023/08/11 09:41:38;;;;;;;1999.90;999.90;;;;;;;34.79;59.05;95943.44;5005275;28;20203;-59
2023/08/11 09:44:04;;;;;;;1999.90;999.90;;;;;;;35.11;55.72;95948.94;5005138;28;20254;-59
2023/08/11 09:46:30;;;;;;;1999.90;999.90;;;;;;;36.20;55.15;95947.44;5004444;28;20207;-59
2023/08/11 09:48:55;;;;;;;1999.90;999.90;;;;;;;35.46;57.20;95948.34;5004685;28;20291;-59
2023/08/11 09:51:21;;;;;;;1999.90;999.90;;;;;;;34.89;57.31;95952.28;5004708;28;20196;-60
2023/08/11 09:53:47;;;;;;;1999.90;999.90;;;;;;;34.68;58.01;95949.38;5004447;28;20206;-59
2023/08/11 09:56:14;;;;;;;1999.90;999.90;;;;;;;35.35;54.18;95943.72;5004601;28;20192;-60
2023/08/11 09:58:41;;;;;;;1999.90;999.90;;;;;;;35.52;55.39;95940.44;5004809;28;20200;-59
2023/08/11 10:01:09;;;;;;;1999.90;999.90;;;;;;;36.25;51.19;95943.69;5003999;28;20200;-60
2023/08/11 10:03:44;;;;;;;1999.90;999.90;;;;;;;35.92;54.58;95944.59;5004901;28;20266;-59
2023/08/11 10:06:13;;;;;;;1999.90;999.90;;;;;;;34.80;57.33;95933.59;5004267;28;20274;-60
2023/08/11 10:08:40;;;;;;;1999.90;999.90;;;;;;;34.86;58.61;95942.03;5004603;28;20314;-59
2023/08/11 10:11:06;;;;;;;1999.90;999.90;;;;;;;34.63;57.12;95935.31;5004460;28;20192;-60
2023/08/11 10:13:33;;;;;;;1999.90;999.90;;;;;;;34.22;58.22;95933.03;5004454;28;20207;-60
2023/08/11 10:15:59;;;;;;;1999.90;999.90;;;;;;;35.07;57.12;95940.75;5004358;28;20192;-59
2023/08/11 10:18:25;;;;;;;1999.90;999.90;;;;;;;34.88;55.93;95942.25;5004399;28;20203;-59
2023/08/11 10:20:51;;;;;;;1999.90;999.90;;;;;;;34.94;55.23;95940.81;5004199;28;20262;-60
2023/08/11 10:23:19;;;;;;;1999.90;999.90;;;;;;;34.51;56.56;95939.69;5004173;28;20192;-60
2023/08/11 10:25:46;;;;;;;1999.90;999.90;;;;;;;34.40;59.59;95939.91;5003854;28;20191;-60
2023/08/11 10:28:12;;;;;;;1999.90;999.90;;;;;;;35.09;55.94;95935.28;5004198;28;20176;-60
2023/08/11 10:30:40;;;;;;;1999.90;999.90;;;;;;;34.78;55.84;95935.47;5004578;28;20199;-59
2023/08/11 10:33:09;;;;;;;1999.90;999.90;;;;;;;35.16;54.02;95931.75;5004419;28;20207;-59
2023/08/11 10:35:48;;;;;;;1999.90;999.90;;;;;;;35.80;49.63;95937.69;5004071;28;20199;-59
2023/08/11 10:38:22;;;;;;;1999.90;999.90;;;;;;;35.44;51.72;95933.94;5004006;28;20196;-60
2023/08/11 10:40:48;;;;;;;1999.90;999.90;;;;;;;34.54;53.40;95935.75;5004244;28;20249;-59
2023/08/11 10:43:17;;;;;;;1999.90;999.90;;;;;;;35.32;55.48;95933.44;5005527;28;20200;-60
2023/08/11 10:45:44;;;;;;;1999.90;999.90;;;;;;;35.21;53.88;95939.38;5008528;28;20195;-60